sensor_id;sensor_type;location;lat;lon;timestamp;pressure;altitude;pressure_sealevel;temperature;humidity
19114;BME280;9689;51.052;13.772;2023-04-07T00:04:28;100660.66;;;1.97;65.28
19114;BME280;9689;51.052;13.772;2023-04-07T00:09:29;100667.41;;;1.92;65.41
19114;BME280;9689;51.052;13.772;2023-04-07T00:14:31;100664.66;;;1.83;66.15
19114;BME280;9689;51.052;13.772;2023-04-07T00:19:33;100665.34;;;1.76;66.38
19114;BME280;9689;51.052;13.772;2023-04-07T00:24:34;100660.97;;;1.72;66.56
19114;BME280;9689;51.052;13.772;2023-04-07T00:29:35;100661.72;;;1.66;67.06
19114;BME280;9689;51.052;13.772;2023-04-07T00:34:36;100668.41;;;1.59;67.37
19114;BME280;9689;51.052;13.772;2023-04-07T00:39:37;100662.22;;;1.50;67.81
19114;BME280;9689;51.052;13.772;2023-04-07T00:44:38;100649.25;;;1.45;68.05
19114;BME280;9689;51.052;13.772;2023-04-07T00:49:40;100648.34;;;1.41;67.40
19114;BME280;9689;51.052;13.772;2023-04-07T00:54:41;100650.00;;;1.39;68.19
19114;BME280;9689;51.052;13.772;2023-04-07T00:59:42;100642.13;;;1.32;68.71
19114;BME280;9689;51.052;13.772;2023-04-07T01:04:48;100636.81;;;1.24;68.53
19114;BME280;9689;51.052;13.772;2023-04-07T01:09:54;100631.53;;;1.18;68.65
19114;BME280;9689;51.052;13.772;2023-04-07T01:14:59;100626.34;;;1.15;68.47
19114;BME280;9689;51.052;13.772;2023-04-07T01:20:12;100633.03;;;1.08;68.45
19114;BME280;9689;51.052;13.772;2023-04-07T01:25:26;100626.09;;;1.04;69.08
19114;BME280;9689;51.052;13.772;2023-04-07T01:30:31;100618.34;;;1.03;69.19
19114;BME280;9689;51.052;13.772;2023-04-07T01:35:34;100614.84;;;0.99;69.29
19114;BME280;9689;51.052;13.772;2023-04-07T01:40:36;100615.47;;;0.89;69.94
19114;BME280;9689;51.052;13.772;2023-04-07T01:45:40;100607.63;;;0.84;69.95
19114;BME280;9689;51.052;13.772;2023-04-07T01:50:42;100607.41;;;0.75;70.06
19114;BME280;9689;51.052;13.772;2023-04-07T01:55:44;100606.69;;;0.79;70.10
19114;BME280;9689;51.052;13.772;2023-04-07T02:00:46;100603.09;;;0.73;70.53
19114;BME280;9689;51.052;13.772;2023-04-07T02:05:56;100606.38;;;0.69;70.42
19114;BME280;9689;51.052;13.772;2023-04-07T02:11:02;100605.47;;;0.65;70.87
19114;BME280;9689;51.052;13.772;2023-04-07T02:16:09;100608.78;;;0.61;70.91
19114;BME280;9689;51.052;13.772;2023-04-07T02:21:11;100609.66;;;0.62;71.05
19114;BME280;9689;51.052;13.772;2023-04-07T02:26:16;100599.25;;;0.55;71.48
19114;BME280;9689;51.052;13.772;2023-04-07T02:31:21;100593.88;;;0.46;71.28
19114;BME280;9689;51.052;13.772;2023-04-07T02:36:22;100600.59;;;0.43;71.81
19114;BME280;9689;51.052;13.772;2023-04-07T02:41:23;100598.81;;;0.39;71.78
19114;BME280;9689;51.052;13.772;2023-04-07T02:46:25;100596.25;;;0.39;72.48
19114;BME280;9689;51.052;13.772;2023-04-07T02:51:26;100590.22;;;0.37;72.07
19114;BME280;9689;51.052;13.772;2023-04-07T02:56:27;100588.53;;;0.37;72.15
19114;BME280;9689;51.052;13.772;2023-04-07T03:01:29;100584.13;;;0.33;71.94
19114;BME280;9689;51.052;13.772;2023-04-07T03:06:30;100590.00;;;0.27;72.49
19114;BME280;9689;51.052;13.772;2023-04-07T03:11:43;100585.69;;;0.26;72.11
19114;BME280;9689;51.052;13.772;2023-04-07T03:16:45;100580.59;;;0.28;72.13
19114;BME280;9689;51.052;13.772;2023-04-07T03:21:47;100585.63;;;0.25;72.39
19114;BME280;9689;51.052;13.772;2023-04-07T03:26:47;100570.16;;;0.20;72.34
19114;BME280;9689;51.052;13.772;2023-04-07T03:32:07;100576.13;;;0.21;72.63
19114;BME280;9689;51.052;13.772;2023-04-07T03:37:08;100571.91;;;0.23;72.87
19114;BME280;9689;51.052;13.772;2023-04-07T03:42:09;100567.63;;;0.22;72.79
19114;BME280;9689;51.052;13.772;2023-04-07T03:47:11;100553.97;;;0.23;72.74
19114;BME280;9689;51.052;13.772;2023-04-07T03:52:13;100562.34;;;0.17;72.59
19114;BME280;9689;51.052;13.772;2023-04-07T03:57:18;100564.00;;;0.14;72.98
19114;BME280;9689;51.052;13.772;2023-04-07T04:02:21;100568.22;;;0.12;72.62
19114;BME280;9689;51.052;13.772;2023-04-07T04:07:25;100567.25;;;0.08;73.09
19114;BME280;9689;51.052;13.772;2023-04-07T04:12:30;100573.09;;;0.03;73.63
19114;BME280;9689;51.052;13.772;2023-04-07T04:17:38;100578.19;;;0.01;73.75
19114;BME280;9689;51.052;13.772;2023-04-07T04:22:40;100578.19;;;0.01;73.99
19114;BME280;9689;51.052;13.772;2023-04-07T04:27:43;100581.56;;;0.00;73.85
19114;BME280;9689;51.052;13.772;2023-04-07T04:32:52;100580.75;;;0.01;73.91
19114;BME280;9689;51.052;13.772;2023-04-07T04:38:03;100576.25;;;-0.08;73.13
19114;BME280;9689;51.052;13.772;2023-04-07T04:43:05;100577.22;;;-0.03;73.34
19114;BME280;9689;51.052;13.772;2023-04-07T04:48:09;100582.19;;;-0.09;73.58
19114;BME280;9689;51.052;13.772;2023-04-07T04:53:10;100581.41;;;-0.06;74.11
19114;BME280;9689;51.052;13.772;2023-04-07T04:58:19;100590.81;;;-0.05;73.97
19114;BME280;9689;51.052;13.772;2023-04-07T05:03:25;100586.69;;;0.00;73.38
19114;BME280;9689;51.052;13.772;2023-04-07T05:08:30;100579.09;;;0.03;73.67
19114;BME280;9689;51.052;13.772;2023-04-07T05:13:32;100578.25;;;0.04;73.45
19114;BME280;9689;51.052;13.772;2023-04-07T05:18:36;100581.84;;;0.11;73.69
19114;BME280;9689;51.052;13.772;2023-04-07T05:23:37;100578.47;;;0.12;73.72
19114;BME280;9689;51.052;13.772;2023-04-07T05:28:39;100567.63;;;0.22;73.39
19114;BME280;9689;51.052;13.772;2023-04-07T05:33:48;100579.84;;;0.32;72.25
19114;BME280;9689;51.052;13.772;2023-04-07T05:38:56;100574.94;;;0.41;71.88
19114;BME280;9689;51.052;13.772;2023-04-07T05:43:58;100572.53;;;0.47;71.72
19114;BME280;9689;51.052;13.772;2023-04-07T05:49:02;100569.28;;;0.53;71.66
19114;BME280;9689;51.052;13.772;2023-04-07T05:54:22;100574.69;;;0.65;70.87
19114;BME280;9689;51.052;13.772;2023-04-07T05:59:24;100568.00;;;0.72;70.17
19114;BME280;9689;51.052;13.772;2023-04-07T06:04:26;100570.06;;;0.87;70.18
19114;BME280;9689;51.052;13.772;2023-04-07T06:09:27;100566.97;;;1.00;69.24
19114;BME280;9689;51.052;13.772;2023-04-07T06:14:28;100568.06;;;1.11;69.34
19114;BME280;9689;51.052;13.772;2023-04-07T06:19:31;100571.09;;;1.32;67.73
19114;BME280;9689;51.052;13.772;2023-04-07T06:24:32;100564.66;;;1.51;66.90
19114;BME280;9689;51.052;13.772;2023-04-07T06:29:34;100562.31;;;1.63;66.27
19114;BME280;9689;51.052;13.772;2023-04-07T06:34:39;100555.75;;;1.76;66.03
19114;BME280;9689;51.052;13.772;2023-04-07T06:39:40;100561.38;;;2.02;64.90
19114;BME280;9689;51.052;13.772;2023-04-07T06:44:41;100553.25;;;2.26;64.29
19114;BME280;9689;51.052;13.772;2023-04-07T06:49:43;100553.75;;;2.55;63.35
19114;BME280;9689;51.052;13.772;2023-04-07T06:54:43;100557.31;;;2.65;62.99
19114;BME280;9689;51.052;13.772;2023-04-07T06:59:44;100546.47;;;2.86;62.42
19114;BME280;9689;51.052;13.772;2023-04-07T07:04:46;100544.41;;;3.19;61.05
19114;BME280;9689;51.052;13.772;2023-04-07T07:09:47;100553.31;;;3.44;60.33
19114;BME280;9689;51.052;13.772;2023-04-07T07:14:48;100544.22;;;3.72;59.71
19114;BME280;9689;51.052;13.772;2023-04-07T07:19:50;100547.91;;;3.94;59.16
19114;BME280;9689;51.052;13.772;2023-04-07T07:24:54;100547.06;;;3.95;58.11
19114;BME280;9689;51.052;13.772;2023-04-07T07:29:54;100550.13;;;4.47;60.35
19114;BME280;9689;51.052;13.772;2023-04-07T07:34:57;100555.59;;;4.82;57.78
19114;BME280;9689;51.052;13.772;2023-04-07T07:39:58;100553.13;;;4.99;56.30
19114;BME280;9689;51.052;13.772;2023-04-07T07:44:59;100562.59;;;4.98;55.06
19114;BME280;9689;51.052;13.772;2023-04-07T07:50:00;100564.56;;;5.45;54.29
19114;BME280;9689;51.052;13.772;2023-04-07T07:55:01;100566.44;;;5.77;51.18
19114;BME280;9689;51.052;13.772;2023-04-07T08:00:02;100561.94;;;5.34;51.28
19114;BME280;9689;51.052;13.772;2023-04-07T08:05:12;100565.44;;;5.39;51.76
19114;BME280;9689;51.052;13.772;2023-04-07T08:10:14;100564.91;;;6.26;49.20
19114;BME280;9689;51.052;13.772;2023-04-07T08:15:14;100569.25;;;6.70;47.38
19114;BME280;9689;51.052;13.772;2023-04-07T08:20:16;100565.63;;;7.55;47.11
19114;BME280;9689;51.052;13.772;2023-04-07T08:25:17;100570.84;;;7.44;47.04
19114;BME280;9689;51.052;13.772;2023-04-07T08:30:19;100559.19;;;8.31;44.06
19114;BME280;9689;51.052;13.772;2023-04-07T08:35:22;100562.22;;;8.91;43.05
19114;BME280;9689;51.052;13.772;2023-04-07T08:40:22;100558.69;;;8.98;41.76
19114;BME280;9689;51.052;13.772;2023-04-07T08:45:24;100555.84;;;9.24;41.29
19114;BME280;9689;51.052;13.772;2023-04-07T08:50:27;100545.88;;;9.59;39.76
19114;BME280;9689;51.052;13.772;2023-04-07T08:55:28;100539.72;;;9.68;39.41
19114;BME280;9689;51.052;13.772;2023-04-07T09:00:28;100536.72;;;9.97;39.30
19114;BME280;9689;51.052;13.772;2023-04-07T09:05:32;100529.88;;;9.90;39.12
19114;BME280;9689;51.052;13.772;2023-04-07T09:10:32;100534.84;;;10.07;39.63
19114;BME280;9689;51.052;13.772;2023-04-07T09:15:33;100534.41;;;10.39;37.57
19114;BME280;9689;51.052;13.772;2023-04-07T09:20:58;100532.81;;;10.30;37.28
19114;BME280;9689;51.052;13.772;2023-04-07T09:26:17;100529.63;;;10.65;36.79
19114;BME280;9689;51.052;13.772;2023-04-07T09:31:18;100522.47;;;10.78;34.27
19114;BME280;9689;51.052;13.772;2023-04-07T09:36:23;100529.63;;;10.65;37.62
19114;BME280;9689;51.052;13.772;2023-04-07T09:41:26;100517.56;;;11.09;37.17
19114;BME280;9689;51.052;13.772;2023-04-07T09:46:27;100510.09;;;10.89;37.81
19114;BME280;9689;51.052;13.772;2023-04-07T09:51:29;100505.16;;;11.20;33.56
19114;BME280;9689;51.052;13.772;2023-04-07T09:56:32;100498.75;;;11.38;32.64
19114;BME280;9689;51.052;13.772;2023-04-07T10:01:34;100500.78;;;10.78;32.24
19114;BME280;9689;51.052;13.772;2023-04-07T10:06:36;100505.06;;;10.80;32.21
19114;BME280;9689;51.052;13.772;2023-04-07T10:11:38;100496.88;;;10.49;32.49
19114;BME280;9689;51.052;13.772;2023-04-07T10:16:41;100508.34;;;9.77;33.29
19114;BME280;9689;51.052;13.772;2023-04-07T10:21:43;100513.00;;;9.52;33.77
19114;BME280;9689;51.052;13.772;2023-04-07T10:26:47;100503.44;;;9.56;34.01
19114;BME280;9689;51.052;13.772;2023-04-07T10:31:51;100506.44;;;9.91;33.76
19114;BME280;9689;51.052;13.772;2023-04-07T10:42:45;100506.13;;;10.70;32.03
19114;BME280;9689;51.052;13.772;2023-04-07T10:48:08;100504.47;;;11.11;31.51
19114;BME280;9689;51.052;13.772;2023-04-07T10:53:10;100498.19;;;11.66;31.64
19114;BME280;9689;51.052;13.772;2023-04-07T11:03:23;100491.56;;;11.91;29.91
19114;BME280;9689;51.052;13.772;2023-04-07T11:08:32;100501.50;;;11.29;30.27
19114;BME280;9689;51.052;13.772;2023-04-07T11:13:40;100489.00;;;11.88;29.56
19114;BME280;9689;51.052;13.772;2023-04-07T11:18:41;100483.16;;;12.51;29.42
19114;BME280;9689;51.052;13.772;2023-04-07T11:23:43;100490.28;;;12.44;29.47
19114;BME280;9689;51.052;13.772;2023-04-07T11:28:56;100485.09;;;12.43;30.25
19114;BME280;9689;51.052;13.772;2023-04-07T11:33:58;100490.25;;;12.46;31.75
19114;BME280;9689;51.052;13.772;2023-04-07T11:39:01;100490.91;;;12.54;30.09
19114;BME280;9689;51.052;13.772;2023-04-07T11:44:08;100483.06;;;12.88;32.75
19114;BME280;9689;51.052;13.772;2023-04-07T11:49:10;100478.63;;;11.85;30.77
19114;BME280;9689;51.052;13.772;2023-04-07T11:54:11;100474.19;;;11.48;31.75
19114;BME280;9689;51.052;13.772;2023-04-07T11:59:21;100471.13;;;11.68;32.57
19114;BME280;9689;51.052;13.772;2023-04-07T12:04:22;100473.78;;;11.25;31.35
19114;BME280;9689;51.052;13.772;2023-04-07T12:09:28;100476.44;;;11.23;30.89
19114;BME280;9689;51.052;13.772;2023-04-07T12:14:31;100471.38;;;11.57;30.62
19114;BME280;9689;51.052;13.772;2023-04-07T12:19:32;100470.88;;;11.80;30.96
19114;BME280;9689;51.052;13.772;2023-04-07T12:24:33;100465.03;;;11.69;31.10
19114;BME280;9689;51.052;13.772;2023-04-07T12:29:35;100478.38;;;11.54;32.07
19114;BME280;9689;51.052;13.772;2023-04-07T12:34:36;100463.63;;;12.30;30.60
19114;BME280;9689;51.052;13.772;2023-04-07T12:39:37;100471.69;;;12.57;30.56
19114;BME280;9689;51.052;13.772;2023-04-07T12:44:39;100469.28;;;12.48;30.98
19114;BME280;9689;51.052;13.772;2023-04-07T12:49:40;100468.19;;;11.85;31.69
19114;BME280;9689;51.052;13.772;2023-04-07T12:54:41;100461.16;;;12.24;31.58
19114;BME280;9689;51.052;13.772;2023-04-07T12:59:44;100461.31;;;12.54;32.26
19114;BME280;9689;51.052;13.772;2023-04-07T13:04:45;100461.41;;;12.83;31.83
19114;BME280;9689;51.052;13.772;2023-04-07T13:09:46;100462.31;;;11.72;31.76
19114;BME280;9689;51.052;13.772;2023-04-07T13:14:48;100456.94;;;11.83;32.50
19114;BME280;9689;51.052;13.772;2023-04-07T13:19:58;100456.88;;;11.84;33.03
19114;BME280;9689;51.052;13.772;2023-04-07T13:24:59;100460.75;;;12.05;32.17
19114;BME280;9689;51.052;13.772;2023-04-07T13:30:02;100453.09;;;11.57;33.17
19114;BME280;9689;51.052;13.772;2023-04-07T13:35:03;100456.81;;;11.47;33.93
19114;BME280;9689;51.052;13.772;2023-04-07T13:40:06;100456.00;;;11.44;33.78
19114;BME280;9689;51.052;13.772;2023-04-07T13:45:08;100450.72;;;11.87;33.76
19114;BME280;9689;51.052;13.772;2023-04-07T13:50:09;100442.13;;;11.83;32.81
19114;BME280;9689;51.052;13.772;2023-04-07T13:55:10;100446.50;;;10.98;34.80
19114;BME280;9689;51.052;13.772;2023-04-07T14:00:13;100443.63;;;11.10;34.92
19114;BME280;9689;51.052;13.772;2023-04-07T14:05:14;100448.50;;;10.84;36.44
19114;BME280;9689;51.052;13.772;2023-04-07T14:10:14;100438.50;;;10.61;37.44
19114;BME280;9689;51.052;13.772;2023-04-07T14:15:16;100451.34;;;10.71;36.36
19114;BME280;9689;51.052;13.772;2023-04-07T14:20:17;100446.47;;;10.99;36.20
19114;BME280;9689;51.052;13.772;2023-04-07T14:25:18;100446.13;;;10.71;36.38
19114;BME280;9689;51.052;13.772;2023-04-07T14:30:20;100438.22;;;11.21;34.75
19114;BME280;9689;51.052;13.772;2023-04-07T14:35:21;100437.09;;;11.32;35.15
19114;BME280;9689;51.052;13.772;2023-04-07T14:40:22;100432.63;;;11.39;35.37
19114;BME280;9689;51.052;13.772;2023-04-07T14:45:24;100432.81;;;10.85;36.02
19114;BME280;9689;51.052;13.772;2023-04-07T14:50:24;100445.44;;;10.62;36.96
19114;BME280;9689;51.052;13.772;2023-04-07T14:55:25;100438.50;;;10.59;37.11
19114;BME280;9689;51.052;13.772;2023-04-07T15:00:27;100442.81;;;10.09;38.40
19114;BME280;9689;51.052;13.772;2023-04-07T15:05:28;100450.44;;;10.23;37.91
19114;BME280;9689;51.052;13.772;2023-04-07T15:10:29;100455.28;;;10.44;37.83
19114;BME280;9689;51.052;13.772;2023-04-07T15:15:35;100453.38;;;10.54;38.37
19114;BME280;9689;51.052;13.772;2023-04-07T15:20:35;100447.16;;;10.07;38.87
19114;BME280;9689;51.052;13.772;2023-04-07T15:25:36;100447.94;;;9.55;39.13
19114;BME280;9689;51.052;13.772;2023-04-07T15:30:38;100453.34;;;9.42;39.30
19114;BME280;9689;51.052;13.772;2023-04-07T15:35:40;100461.84;;;9.53;39.63
19114;BME280;9689;51.052;13.772;2023-04-07T15:40:41;100452.66;;;9.26;40.31
19114;BME280;9689;51.052;13.772;2023-04-07T15:45:43;100459.22;;;9.54;39.62
19114;BME280;9689;51.052;13.772;2023-04-07T15:50:44;100466.81;;;9.00;41.24
19114;BME280;9689;51.052;13.772;2023-04-07T15:55:45;100468.53;;;9.01;41.71
19114;BME280;9689;51.052;13.772;2023-04-07T16:00:47;100479.41;;;8.54;42.52
19114;BME280;9689;51.052;13.772;2023-04-07T16:05:48;100474.19;;;8.56;42.76
19114;BME280;9689;51.052;13.772;2023-04-07T16:10:49;100482.00;;;8.51;43.26
19114;BME280;9689;51.052;13.772;2023-04-07T16:15:55;100486.59;;;8.18;44.85
19114;BME280;9689;51.052;13.772;2023-04-07T16:20:56;100493.59;;;8.04;45.40
19114;BME280;9689;51.052;13.772;2023-04-07T16:25:57;100495.25;;;8.17;46.37
19114;BME280;9689;51.052;13.772;2023-04-07T16:30:59;100503.34;;;7.64;47.38
19114;BME280;9689;51.052;13.772;2023-04-07T16:36:01;100507.72;;;7.54;47.90
19114;BME280;9689;51.052;13.772;2023-04-07T16:41:02;100512.09;;;7.40;48.31
19114;BME280;9689;51.052;13.772;2023-04-07T16:46:04;100520.75;;;7.36;48.75
19114;BME280;9689;51.052;13.772;2023-04-07T16:51:05;100531.06;;;7.47;47.91
19114;BME280;9689;51.052;13.772;2023-04-07T16:56:14;100528.44;;;7.60;51.44
19114;BME280;9689;51.052;13.772;2023-04-07T17:01:16;100546.75;;;7.13;48.12
19114;BME280;9689;51.052;13.772;2023-04-07T17:06:16;100551.81;;;7.50;57.72
19114;BME280;9689;51.052;13.772;2023-04-07T17:11:17;100559.66;;;7.33;48.93
19114;BME280;9689;51.052;13.772;2023-04-07T17:16:19;100566.59;;;7.20;50.05
19114;BME280;9689;51.052;13.772;2023-04-07T17:21:20;100570.91;;;7.12;50.59
19114;BME280;9689;51.052;13.772;2023-04-07T17:26:21;100570.94;;;6.92;52.24
19114;BME280;9689;51.052;13.772;2023-04-07T17:31:23;100580.47;;;6.79;52.02
19114;BME280;9689;51.052;13.772;2023-04-07T17:36:24;100583.91;;;6.68;53.11
19114;BME280;9689;51.052;13.772;2023-04-07T17:41:26;100587.38;;;6.65;53.55
19114;BME280;9689;51.052;13.772;2023-04-07T17:46:28;100599.44;;;6.66;54.15
19114;BME280;9689;51.052;13.772;2023-04-07T17:51:29;100599.44;;;6.54;54.47
19114;BME280;9689;51.052;13.772;2023-04-07T17:56:31;100610.66;;;6.56;55.11
19114;BME280;9689;51.052;13.772;2023-04-07T18:01:33;100620.13;;;6.51;55.35
19114;BME280;9689;51.052;13.772;2023-04-07T18:06:34;100619.31;;;6.52;56.80
19114;BME280;9689;51.052;13.772;2023-04-07T18:11:35;100633.91;;;6.41;58.00
19114;BME280;9689;51.052;13.772;2023-04-07T18:16:37;100637.34;;;6.17;59.11
19114;BME280;9689;51.052;13.772;2023-04-07T18:21:38;100644.16;;;6.04;59.68
19114;BME280;9689;51.052;13.772;2023-04-07T18:26:39;100648.47;;;6.07;59.89
19114;BME280;9689;51.052;13.772;2023-04-07T18:31:43;100650.97;;;5.88;62.57
19114;BME280;9689;51.052;13.772;2023-04-07T18:36:45;100656.22;;;5.99;62.59
19114;BME280;9689;51.052;13.772;2023-04-07T18:41:46;100666.47;;;5.85;64.19
19114;BME280;9689;51.052;13.772;2023-04-07T18:46:48;100682.69;;;5.57;66.24
19114;BME280;9689;51.052;13.772;2023-04-07T18:51:49;100682.69;;;5.57;67.68
19114;BME280;9689;51.052;13.772;2023-04-07T18:56:51;100687.69;;;5.35;69.87
19114;BME280;9689;51.052;13.772;2023-04-07T19:01:54;100688.28;;;4.98;71.76
19114;BME280;9689;51.052;13.772;2023-04-07T19:06:55;100688.19;;;4.92;73.01
19114;BME280;9689;51.052;13.772;2023-04-07T19:11:56;100701.72;;;4.65;75.32
19114;BME280;9689;51.052;13.772;2023-04-07T19:16:58;100710.31;;;4.62;75.89
19114;BME280;9689;51.052;13.772;2023-04-07T19:21:58;100717.25;;;4.69;76.81
19114;BME280;9689;51.052;13.772;2023-04-07T19:26:59;100717.97;;;4.56;76.24
19114;BME280;9689;51.052;13.772;2023-04-07T19:32:01;100722.38;;;4.68;77.56
19114;BME280;9689;51.052;13.772;2023-04-07T19:37:03;100721.41;;;4.58;77.85
19114;BME280;9689;51.052;13.772;2023-04-07T19:42:03;100729.13;;;4.52;77.55
19114;BME280;9689;51.052;13.772;2023-04-07T19:47:05;100727.34;;;4.48;78.31
19114;BME280;9689;51.052;13.772;2023-04-07T19:52:06;100725.53;;;4.42;79.59
19114;BME280;9689;51.052;13.772;2023-04-07T19:57:07;100730.88;;;4.54;79.19
19114;BME280;9689;51.052;13.772;2023-04-07T20:02:09;100734.31;;;4.55;79.85
19114;BME280;9689;51.052;13.772;2023-04-07T20:07:09;100734.22;;;4.47;79.62
19114;BME280;9689;51.052;13.772;2023-04-07T20:12:10;100732.56;;;4.54;80.95
19114;BME280;9689;51.052;13.772;2023-04-07T20:17:12;100733.22;;;4.35;80.36
19114;BME280;9689;51.052;13.772;2023-04-07T20:22:13;100731.66;;;4.49;80.05
19114;BME280;9689;51.052;13.772;2023-04-07T20:27:13;100734.03;;;4.34;79.38
19114;BME280;9689;51.052;13.772;2023-04-07T20:32:15;100732.41;;;4.40;79.41
19114;BME280;9689;51.052;13.772;2023-04-07T20:37:18;100740.09;;;4.36;79.46
19114;BME280;9689;51.052;13.772;2023-04-07T20:42:18;100735.06;;;4.46;79.35
19114;BME280;9689;51.052;13.772;2023-04-07T20:47:20;100734.31;;;4.55;79.53
19114;BME280;9689;51.052;13.772;2023-04-07T20:52:22;100729.16;;;4.58;79.69
19114;BME280;9689;51.052;13.772;2023-04-07T20:57:24;100737.75;;;4.57;79.47
19114;BME280;9689;51.052;13.772;2023-04-07T21:02:26;100730.66;;;4.36;80.14
19114;BME280;9689;51.052;13.772;2023-04-07T21:07:27;100734.00;;;4.29;80.58
19114;BME280;9689;51.052;13.772;2023-04-07T21:12:28;100734.84;;;4.28;81.17
19114;BME280;9689;51.052;13.772;2023-04-07T21:17:30;100728.75;;;4.24;80.82
19114;BME280;9689;51.052;13.772;2023-04-07T21:22:31;100730.31;;;4.09;81.83
19114;BME280;9689;51.052;13.772;2023-04-07T21:27:31;100725.09;;;4.06;83.29
19114;BME280;9689;51.052;13.772;2023-04-07T21:32:33;100731.19;;;4.11;83.09
19114;BME280;9689;51.052;13.772;2023-04-07T21:37:35;100729.50;;;4.13;83.11
19114;BME280;9689;51.052;13.772;2023-04-07T21:42:35;100721.63;;;4.02;83.89
19114;BME280;9689;51.052;13.772;2023-04-07T21:47:37;100726.78;;;4.02;84.16
19114;BME280;9689;51.052;13.772;2023-04-07T21:52:38;100735.28;;;3.95;84.46
19114;BME280;9689;51.052;13.772;2023-04-07T21:57:39;100729.34;;;4.02;84.52
19114;BME280;9689;51.052;13.772;2023-04-07T22:02:42;100728.50;;;4.02;84.53
19114;BME280;9689;51.052;13.772;2023-04-07T22:07:43;100731.81;;;3.93;85.03
19114;BME280;9689;51.052;13.772;2023-04-07T22:12:45;100729.94;;;3.83;85.23
19114;BME280;9689;51.052;13.772;2023-04-07T22:17:47;100730.00;;;3.87;86.04
19114;BME280;9689;51.052;13.772;2023-04-07T22:22:48;100733.31;;;3.79;86.30
19114;BME280;9689;51.052;13.772;2023-04-07T22:27:49;100728.16;;;3.79;86.27
19114;BME280;9689;51.052;13.772;2023-04-07T22:32:52;100730.75;;;3.80;86.44
19114;BME280;9689;51.052;13.772;2023-04-07T22:37:52;100730.69;;;3.76;86.83
19114;BME280;9689;51.052;13.772;2023-04-07T22:42:53;100731.69;;;3.84;87.22
19114;BME280;9689;51.052;13.772;2023-04-07T22:47:55;100732.59;;;3.89;87.26
19114;BME280;9689;51.052;13.772;2023-04-07T22:52:56;100739.53;;;3.93;87.26
19114;BME280;9689;51.052;13.772;2023-04-07T22:57:57;100736.88;;;3.87;87.35
19114;BME280;9689;51.052;13.772;2023-04-07T23:02:59;100739.56;;;3.94;87.92
19114;BME280;9689;51.052;13.772;2023-04-07T23:08:00;100740.47;;;3.98;88.13
19114;BME280;9689;51.052;13.772;2023-04-07T23:13:00;100747.28;;;3.94;88.06
19114;BME280;9689;51.052;13.772;2023-04-07T23:18:02;100741.31;;;3.98;87.83
19114;BME280;9689;51.052;13.772;2023-04-07T23:23:03;100739.59;;;3.99;88.79
19114;BME280;9689;51.052;13.772;2023-04-07T23:28:04;100742.13;;;3.94;88.52
19114;BME280;9689;51.052;13.772;2023-04-07T23:33:06;100738.81;;;4.03;88.33
19114;BME280;9689;51.052;13.772;2023-04-07T23:38:06;100730.97;;;3.95;88.69
19114;BME280;9689;51.052;13.772;2023-04-07T23:43:09;100728.38;;;3.94;89.01
19114;BME280;9689;51.052;13.772;2023-04-07T23:48:11;100731.84;;;3.96;88.77
19114;BME280;9689;51.052;13.772;2023-04-07T23:53:12;100721.53;;;3.97;89.09
19114;BME280;9689;51.052;13.772;2023-04-07T23:58:12;100728.47;;;4.00;89.22
